Terminal Aerodrome Forecast
Issued by NWS Cleveland, OH

Home | Current Version | Previous Version | Graphics & Text | Print | Product List | Glossary On
Versions: 1 2 3 4 5 6 7 8 9 10 11 12 13 14 15 16 17 18 19
984
FTUS41 KCLE 221011 AAA
TAFCAK
TAF AMD
KCAK 221011Z 2210/2306 18005KT P6SM VCSH SCT035 OVC070
      TEMPO 2210/2213 5SM -SHRA BR BKN035
     FM221300 18003KT P6SM OVC015
      TEMPO 2213/2215 5SM BR
     FM222000 20006KT P6SM OVC025
     FM222200 22006KT P6SM OVC035
     FM230200 18006KT 5SM BR OVC015=

USA.gov is the U.S. government's official web portal to all federal, state and local government web resources and services.